Track Масный Дмитрий

Time Latitude Longitude Accuracy (66% radius in meters) Altitude (meters) Speed (km/hour) Bearing (degrees) Battery (%) GPS flag
07:15:03 57.203685 60.118758 0 0 0 0 1 delete
07:15:02 57.203690 60.118768 0 0 0 0 1 delete
07:15:01 57.203702 60.118773 0 0 0 0 1 delete
07:15:00 57.203715 60.118742 0 0 0 0 1 delete
07:14:59 57.203733 60.118690 0 0 0 0 1 delete
07:14:58 57.203755 60.118628 0 0 0 0 1 delete
07:14:57 57.203777 60.118568 0 0 0 0 1 delete
07:14:56 57.203795 60.118503 0 0 0 0 1 delete
07:14:55 57.203815 60.118443 0 0 0 0 1 delete
07:14:54 57.203833 60.118383 0 0 0 0 1 delete
07:14:53 57.203852 60.118325 0 0 0 0 1 delete
07:14:52 57.203863 60.118265 0 0 0 0 1 delete
07:14:51 57.203870 60.118200 0 0 0 0 1 delete
07:14:50 57.203870 60.118135 0 0 0 0 1 delete
07:14:49 57.203867 60.118067 0 0 0 0 1 delete
07:14:48 57.203853 60.117997 0 0 0 0 1 delete
07:14:47 57.203840 60.117930 0 0 0 0 1 delete
07:14:46 57.203825 60.117865 0 0 0 0 1 delete
07:14:45 57.203810 60.117803 0 0 0 0 1 delete
07:14:44 57.203793 60.117743 0 0 0 0 1 delete
07:14:43 57.203777 60.117680 0 0 0 0 1 delete
07:14:42 57.203762 60.117615 0 0 0 0 1 delete
07:14:41 57.203748 60.117552 0 0 0 0 1 delete
07:14:40 57.203737 60.117485 0 0 0 0 1 delete
07:14:39 57.203727 60.117418 0 0 0 0 1 delete
07:14:38 57.203720 60.117348 0 0 0 0 1 delete
07:14:37 57.203715 60.117277 0 0 0 0 1 delete
07:14:36 57.203713 60.117210 0 0 0 0 1 delete
07:14:35 57.203710 60.117140 0 0 0 0 1 delete
07:14:34 57.203710 60.117073 0 0 0 0 1 delete
07:14:33 57.203710 60.117007 0 0 0 0 1 delete
07:14:32 57.203708 60.116942 0 0 0 0 1 delete
07:14:31 57.203705 60.116877 0 0 0 0 1 delete
07:14:30 57.203702 60.116813 0 0 0 0 1 delete
07:14:29 57.203697 60.116750 0 0 0 0 1 delete
07:14:28 57.203693 60.116688 0 0 0 0 1 delete
07:14:27 57.203692 60.116632 0 0 0 0 1 delete
07:14:26 57.203688 60.116575 0 0 0 0 1 delete
07:14:25 57.203682 60.116522 0 0 0 0 1 delete
07:14:24 57.203673 60.116468 0 0 0 0 1 delete
07:14:23 57.203662 60.116415 0 0 0 0 1 delete
07:14:22 57.203647 60.116357 0 0 0 0 1 delete
07:14:21 57.203625 60.116300 0 0 0 0 1 delete
07:14:20 57.203598 60.116242 0 0 0 0 1 delete
07:14:19 57.203568 60.116187 0 0 0 0 1 delete
07:14:18 57.203535 60.116127 0 0 0 0 1 delete
07:14:17 57.203498 60.116065 0 0 0 0 1 delete
07:14:16 57.203460 60.115998 0 0 0 0 1 delete
07:14:15 57.203417 60.115932 0 0 0 0 1 delete
07:14:14 57.203375 60.115865 0 0 0 0 1 delete